• Join FlightAware (Why Join?)
  • Login
  • US Flag 
10:34AM EST


 

Airport Tracker/Info


-or-


 

Live Flight TrackerFlight Track Log ✈ AWI3970 ✈ 10-May-2013 ✈ KPHL - KALB

Flight Track Log - Related Links

Times and Time Zones

All times are in EDT time to prevent confusion due to time zone crossing. See the AWI3970 flight status page for this flight to view local times or setup timezone preferences in your user account.

Time Position Orientation Groundspeed Altitude Reporting Facility
EDT Latitude Longitude Course Direction KTS MPH feet Rate Location/Type
11:33PM 39.8667 -75.2667 37° Northeast 166 191 1,000  Level Philadelphia TRACON
11:34PM 39.8333 -75.3333 237° Southwest 233 268 3,700 3,120 Climbing Philadelphia TRACON
11:35PM 39.7833 -75.3833 218° Southwest 237 273 7,600 2,400 Climbing Philadelphia TRACON
11:36PM 39.8387 -74.6447 37° Northeast  Level FlightAware Approximate
11:37PM 39.9727 -74.5253 46° Northeast  Level FlightAware Approximate
11:38PM 40.0942 -74.3891 37° Northeast  Level FlightAware Approximate
11:38PM 39.7458 -75.1744 103° East 304 350 11,900  Level New York Center
11:39PM 39.7611 -75.0431 81° East 337 388 12,000  Climbing New York Center
11:40PM 39.7739 -74.9194 82° East 346 398 12,000 120 Level New York Center
11:41PM 39.7867 -74.7906 83° East 346 398 12,300 1,200 Climbing New York Center
11:42PM 39.8300 -74.6797 63° Northeast 346 398 14,500 1,980 Climbing New York Center
11:43PM 39.9161 -74.5925 38° Northeast 347 399 16,400 1,800 Climbing New York Center
11:44PM 40.0022 -74.5078 37° Northeast 363 418 18,100 1,560 Climbing New York Center
11:45PM 40.0947 -74.4206 36° Northeast 392 451 19,600 1,380 Climbing New York Center
11:46PM 40.1850 -74.3300 37° Northeast 399 459 21,000 1,200 Climbing New York Center
11:47PM 40.2986 -74.2953 13° North 399 459 22,100 1,020 Climbing New York Center
11:48PM 40.4117 -74.2736 North 399 459 23,100 960 Climbing New York Center
11:50PM 40.6900 -74.2192 North 416 479 25,500 780 Climbing Boston Center
11:51PM 40.8467 -74.1961 North 427 491 26,000 240 Climbing Boston Center
11:52PM 40.9742 -74.1692 North 440 506 26,000  Level Boston Center
11:53PM 41.0956 -74.1422 North 450 518 26,000  Level Boston Center
11:54PM 41.2208 -74.1208 North 450 518 26,000  Level Boston Center
11:55PM 41.3275 -74.0931 11° North 444 511 26,000  Level Boston Center
11:56PM 41.4486 -74.0686 North 444 511 26,000 -780 Level Boston Center
11:57PM 41.5844 -74.0442 North 449 517 24,500 -1,500 Descending Boston Center
11:58PM 41.7017 -74.0194 North 444 511 23,000 -1,500 Descending Boston Center
11:59PM 41.8125 -73.9972 North 424 488 21,600 -1,500 Descending Boston Center
12:00AM 41.9272 -73.9747 North 406 467 20,100 -1,560 Descending Boston Center
12:01AM 42.0275 -73.9550 North 404 465 18,700 -1,800 Descending Boston Center
12:02AM 42.1008 -73.9397 North 395 455 17,300 -1,860 Descending Boston Center
12:02AM 42.1467 -73.9269 12° North 399 459 16,600 -1,800 Descending Boston Center
12:03AM 42.2117 -73.9172 North 393 452 15,500 -1,740 Descending Boston Center
12:03AM 42.2428 -73.9097 10° North 389 448 14,900 -1,800 Descending Boston Center
12:04AM 42.3158 -73.9114 359° North 375 432 13,700 -1,920 Descending Boston Center
12:04AM 42.3556 -73.9094 North 375 432 13,000 -1,800 Descending Boston Center
12:05AM 42.4094 -73.9164 355° North 355 409 12,100 -1,320 Descending Boston Center
12:05AM 42.4325 -73.9142 North 358 412 11,700 -1,500 Descending Boston Center
12:06AM 42.4992 -73.9186 357° North 320 368 10,600 -1,800 Descending Boston Center
12:06AM 42.5367 -73.9222 356° North 317 365 9,900 -1,500 Descending Boston Center
12:07AM 42.5803 -73.9261 356° North 289 333 9,100 -1,740 Descending Boston Center
12:07AM 42.6200 -73.9269 359° North 296 341 8,200 -1,800 Descending Boston Center
12:08AM 42.6594 -73.9253 North 277 319 7,300 -1,800 Descending Boston Center
12:08AM 42.6992 -73.9261 359° North 285 328 6,400 -1,800 Descending Boston Center
12:09AM 42.7472 -73.9217 North 288 331 5,300 -1,440 Descending Boston Center
12:09AM 42.7742 -73.9222 359° North 285 328 5,000 -600 Descending Boston Center
12:10AM 42.8203 -73.9147 North 243 280 4,700 -600 Descending Boston Center
12:10AM 42.8306 -73.9150 359° North 270 311 4,400 -1,800 Descending Boston Center
12:11AM 42.8889 -73.9108 North 222 255 2,900 -1,800 Descending Boston Center
12:11AM 42.8994 -73.9083 10° North 231 266 2,600 -900 Descending Boston Center
12:12AM 42.9272 -73.8636 50° Northeast 196 226 2,000 -600 Descending Boston Center
12:12AM 42.9211 -73.8464 116° Southeast 180 207 2,000  Level Boston Center
12:13AM 42.9067 -73.8233 131° Southeast 149 171 2,000  Level Boston Center
12:13AM 42.8881 -73.8172 166° South 126 145 2,000  Level Boston Center
12:14AM 42.8653 -73.8167 179° South 125 144 2,000  Level Boston Center
12:14AM 42.8611 -73.7997 109° East 126 145 2,000 -120 Level Boston Center
12:15AM 42.8381 -73.8133 203° Southwest 115 132 1,900 -480 Descending Boston Center
12:16AM 42.8069 -73.8097 175° South 115 132 1,300 -720 Descending Boston Center
12:17AM 42.7672 -73.8061 176° South 127 146 500 -840 Descending Boston Center